sensor_id;sensor_type;location;lat;lon;timestamp;temperature;humidity
22379;DHT22;11357;49.990;7.370;2024-02-21T02:18:26;10.10;92.20
22379;DHT22;11357;49.990;7.370;2024-02-21T02:20:52;10.10;92.20
22379;DHT22;11357;49.990;7.370;2024-02-21T02:23:31;10.00;92.10
22379;DHT22;11357;49.990;7.370;2024-02-21T02:25:57;10.00;92.20
22379;DHT22;11357;49.990;7.370;2024-02-21T04:12:22;9.30;91.60
22379;DHT22;11357;49.990;7.370;2024-02-21T04:14:47;9.20;91.60
22379;DHT22;11357;49.990;7.370;2024-02-21T07:13:37;8.70;91.80
22379;DHT22;11357;49.990;7.370;2024-02-21T07:16:03;8.70;91.80
22379;DHT22;11357;49.990;7.370;2024-02-21T14:08:51;14.40;76.00
22379;DHT22;11357;49.990;7.370;2024-02-21T14:11:16;14.40;76.40
22379;DHT22;11357;49.990;7.370;2024-02-21T14:13:42;14.40;76.70
22379;DHT22;11357;49.990;7.370;2024-02-21T14:16:11;14.30;77.00
22379;DHT22;11357;49.990;7.370;2024-02-21T14:18:41;14.30;77.40
22379;DHT22;11357;49.990;7.370;2024-02-21T14:21:13;14.30;77.70
22379;DHT22;11357;49.990;7.370;2024-02-21T14:23:39;14.30;77.80
22379;DHT22;11357;49.990;7.370;2024-02-21T14:26:05;14.30;78.10
22379;DHT22;11357;49.990;7.370;2024-02-21T14:28:32;14.30;78.20
22379;DHT22;11357;49.990;7.370;2024-02-21T14:30:59;14.30;78.20
22379;DHT22;11357;49.990;7.370;2024-02-21T14:33:26;14.30;78.30
22379;DHT22;11357;49.990;7.370;2024-02-21T14:35:52;14.20;78.20
22379;DHT22;11357;49.990;7.370;2024-02-21T14:38:19;14.20;78.20
22379;DHT22;11357;49.990;7.370;2024-02-21T14:40:45;14.10;78.30
22379;DHT22;11357;49.990;7.370;2024-02-21T14:43:11;14.00;78.30
22379;DHT22;11357;49.990;7.370;2024-02-21T14:45:36;13.90;78.40
22379;DHT22;11357;49.990;7.370;2024-02-21T14:48:04;13.90;78.40
22379;DHT22;11357;49.990;7.370;2024-02-21T14:50:30;13.80;78.30
22379;DHT22;11357;49.990;7.370;2024-02-21T14:52:55;13.70;78.40
22379;DHT22;11357;49.990;7.370;2024-02-21T14:55:21;13.60;78.40
22379;DHT22;11357;49.990;7.370;2024-02-21T14:57:48;13.50;78.40
22379;DHT22;11357;49.990;7.370;2024-02-21T15:00:14;13.40;78.80
22379;DHT22;11357;49.990;7.370;2024-02-21T15:02:40;13.30;78.80
22379;DHT22;11357;49.990;7.370;2024-02-21T15:05:06;13.20;78.90
22379;DHT22;11357;49.990;7.370;2024-02-21T15:07:32;13.10;79.00
22379;DHT22;11357;49.990;7.370;2024-02-21T15:09:58;13.00;79.20
22379;DHT22;11357;49.990;7.370;2024-02-21T15:12:24;12.90;79.40
22379;DHT22;11357;49.990;7.370;2024-02-21T15:14:50;12.80;79.60
22379;DHT22;11357;49.990;7.370;2024-02-21T15:17:17;12.80;79.70
22379;DHT22;11357;49.990;7.370;2024-02-21T15:19:43;12.80;79.90
22379;DHT22;11357;49.990;7.370;2024-02-21T15:22:13;12.80;79.70
22379;DHT22;11357;49.990;7.370;2024-02-21T15:24:42;12.70;79.80
22379;DHT22;11357;49.990;7.370;2024-02-21T15:27:08;12.70;79.80
22379;DHT22;11357;49.990;7.370;2024-02-21T15:29:35;12.60;79.70
22379;DHT22;11357;49.990;7.370;2024-02-21T15:32:04;12.60;79.80
22379;DHT22;11357;49.990;7.370;2024-02-21T15:34:29;12.60;79.70
22379;DHT22;11357;49.990;7.370;2024-02-21T15:36:56;12.50;79.70
22379;DHT22;11357;49.990;7.370;2024-02-21T15:39:22;12.40;79.90
22379;DHT22;11357;49.990;7.370;2024-02-21T15:41:48;12.40;80.00
22379;DHT22;11357;49.990;7.370;2024-02-21T15:44:14;12.40;80.00
22379;DHT22;11357;49.990;7.370;2024-02-21T15:46:40;12.40;80.00
22379;DHT22;11357;49.990;7.370;2024-02-21T15:49:06;12.30;79.80
22379;DHT22;11357;49.990;7.370;2024-02-21T15:51:33;12.30;79.90
22379;DHT22;11357;49.990;7.370;2024-02-21T15:54:00;12.30;80.00
22379;DHT22;11357;49.990;7.370;2024-02-21T15:56:26;12.30;80.00
22379;DHT22;11357;49.990;7.370;2024-02-21T15:58:53;12.20;80.00
22379;DHT22;11357;49.990;7.370;2024-02-21T16:01:20;12.20;80.10
22379;DHT22;11357;49.990;7.370;2024-02-21T16:03:46;12.20;80.10
22379;DHT22;11357;49.990;7.370;2024-02-21T16:06:12;12.10;80.20
22379;DHT22;11357;49.990;7.370;2024-02-21T16:08:37;12.10;80.40
22379;DHT22;11357;49.990;7.370;2024-02-21T16:11:06;12.10;80.50
22379;DHT22;11357;49.990;7.370;2024-02-21T16:13:34;12.00;80.40
22379;DHT22;11357;49.990;7.370;2024-02-21T16:16:00;12.00;80.50
22379;DHT22;11357;49.990;7.370;2024-02-21T16:18:26;11.90;80.60
22379;DHT22;11357;49.990;7.370;2024-02-21T16:20:52;11.90;80.80
22379;DHT22;11357;49.990;7.370;2024-02-21T16:23:18;11.90;81.00
22379;DHT22;11357;49.990;7.370;2024-02-21T16:25:44;11.80;81.20
22379;DHT22;11357;49.990;7.370;2024-02-21T16:28:10;11.80;81.30
22379;DHT22;11357;49.990;7.370;2024-02-21T16:30:36;11.70;81.60
22379;DHT22;11357;49.990;7.370;2024-02-21T16:33:02;11.70;82.00
22379;DHT22;11357;49.990;7.370;2024-02-21T16:35:28;11.60;82.20
22379;DHT22;11357;49.990;7.370;2024-02-21T16:37:57;11.60;82.40
22379;DHT22;11357;49.990;7.370;2024-02-21T16:40:23;11.50;82.60
22379;DHT22;11357;49.990;7.370;2024-02-21T16:42:49;11.60;82.80
22379;DHT22;11357;49.990;7.370;2024-02-21T16:45:15;11.50;82.90
22379;DHT22;11357;49.990;7.370;2024-02-21T16:47:41;11.50;83.10
22379;DHT22;11357;49.990;7.370;2024-02-21T16:50:08;11.50;83.20
22379;DHT22;11357;49.990;7.370;2024-02-21T16:52:34;11.50;83.40
22379;DHT22;11357;49.990;7.370;2024-02-21T16:55:00;11.40;83.50
22379;DHT22;11357;49.990;7.370;2024-02-21T16:57:26;11.40;83.70
22379;DHT22;11357;49.990;7.370;2024-02-21T16:59:51;11.40;83.90
22379;DHT22;11357;49.990;7.370;2024-02-21T17:02:18;11.40;84.00
22379;DHT22;11357;49.990;7.370;2024-02-21T17:04:45;11.30;84.20
22379;DHT22;11357;49.990;7.370;2024-02-21T17:07:12;11.30;84.30
22379;DHT22;11357;49.990;7.370;2024-02-21T17:09:37;11.30;84.60
22379;DHT22;11357;49.990;7.370;2024-02-21T17:12:04;11.30;84.70
22379;DHT22;11357;49.990;7.370;2024-02-21T17:14:33;11.20;84.90
22379;DHT22;11357;49.990;7.370;2024-02-21T17:16:58;11.20;85.10
22379;DHT22;11357;49.990;7.370;2024-02-21T17:19:24;11.20;85.10
22379;DHT22;11357;49.990;7.370;2024-02-21T17:21:50;11.20;85.10
22379;DHT22;11357;49.990;7.370;2024-02-21T17:24:15;11.20;85.20
22379;DHT22;11357;49.990;7.370;2024-02-21T17:26:41;11.20;85.20
22379;DHT22;11357;49.990;7.370;2024-02-21T17:29:07;11.20;85.30
22379;DHT22;11357;49.990;7.370;2024-02-21T17:31:33;11.20;85.30
22379;DHT22;11357;49.990;7.370;2024-02-21T17:33:59;11.20;85.30
22379;DHT22;11357;49.990;7.370;2024-02-21T17:36:24;11.20;85.10
22379;DHT22;11357;49.990;7.370;2024-02-21T17:38:50;11.20;85.00
22379;DHT22;11357;49.990;7.370;2024-02-21T17:41:17;11.20;85.00
22379;DHT22;11357;49.990;7.370;2024-02-21T17:43:43;11.20;85.00
22379;DHT22;11357;49.990;7.370;2024-02-21T17:46:10;11.20;85.20
22379;DHT22;11357;49.990;7.370;2024-02-21T17:48:36;11.20;85.30
22379;DHT22;11357;49.990;7.370;2024-02-21T17:51:02;11.20;85.20
22379;DHT22;11357;49.990;7.370;2024-02-21T17:53:28;11.20;85.10
22379;DHT22;11357;49.990;7.370;2024-02-21T17:55:57;11.20;85.10
22379;DHT22;11357;49.990;7.370;2024-02-21T17:58:23;11.20;85.00
22379;DHT22;11357;49.990;7.370;2024-02-21T18:00:49;11.20;84.90
22379;DHT22;11357;49.990;7.370;2024-02-21T18:03:16;11.20;84.70
22379;DHT22;11357;49.990;7.370;2024-02-21T18:05:42;11.10;84.50
22379;DHT22;11357;49.990;7.370;2024-02-21T18:08:10;11.20;84.60
22379;DHT22;11357;49.990;7.370;2024-02-21T18:10:36;11.20;84.60
22379;DHT22;11357;49.990;7.370;2024-02-21T18:13:04;11.20;84.60
22379;DHT22;11357;49.990;7.370;2024-02-21T18:15:31;11.20;84.50
22379;DHT22;11357;49.990;7.370;2024-02-21T18:17:57;11.20;84.40
22379;DHT22;11357;49.990;7.370;2024-02-21T18:20:23;11.20;84.60
22379;DHT22;11357;49.990;7.370;2024-02-21T18:22:49;11.30;84.40
22379;DHT22;11357;49.990;7.370;2024-02-21T18:25:16;11.30;84.40
22379;DHT22;11357;49.990;7.370;2024-02-21T18:27:43;11.30;84.40
22379;DHT22;11357;49.990;7.370;2024-02-21T18:30:09;11.20;84.40
22379;DHT22;11357;49.990;7.370;2024-02-21T18:32:35;11.20;84.40
22379;DHT22;11357;49.990;7.370;2024-02-21T18:35:01;11.20;84.60
22379;DHT22;11357;49.990;7.370;2024-02-21T18:37:27;11.10;84.70
22379;DHT22;11357;49.990;7.370;2024-02-21T18:39:54;11.10;84.90
22379;DHT22;11357;49.990;7.370;2024-02-21T18:42:20;11.10;85.00
22379;DHT22;11357;49.990;7.370;2024-02-21T18:44:46;11.00;85.30
22379;DHT22;11357;49.990;7.370;2024-02-21T18:47:12;11.00;85.50
22379;DHT22;11357;49.990;7.370;2024-02-21T18:49:38;11.00;85.80
22379;DHT22;11357;49.990;7.370;2024-02-21T18:52:04;11.00;86.10
22379;DHT22;11357;49.990;7.370;2024-02-21T18:54:30;11.00;86.50
22379;DHT22;11357;49.990;7.370;2024-02-21T18:56:55;11.00;86.80
22379;DHT22;11357;49.990;7.370;2024-02-21T18:59:21;10.90;87.10
22379;DHT22;11357;49.990;7.370;2024-02-21T19:01:46;10.90;87.40
22379;DHT22;11357;49.990;7.370;2024-02-21T19:04:12;10.80;87.80
22379;DHT22;11357;49.990;7.370;2024-02-21T19:06:39;10.80;88.20
22379;DHT22;11357;49.990;7.370;2024-02-21T19:09:04;10.70;88.50
22379;DHT22;11357;49.990;7.370;2024-02-21T19:11:30;10.70;88.70
22379;DHT22;11357;49.990;7.370;2024-02-21T19:13:56;10.70;88.90
22379;DHT22;11357;49.990;7.370;2024-02-21T19:16:22;10.60;89.10
22379;DHT22;11357;49.990;7.370;2024-02-21T19:18:47;10.60;89.30
22379;DHT22;11357;49.990;7.370;2024-02-21T19:21:13;10.60;89.50
22379;DHT22;11357;49.990;7.370;2024-02-21T19:23:39;10.60;89.70
22379;DHT22;11357;49.990;7.370;2024-02-21T19:26:09;10.60;89.90
22379;DHT22;11357;49.990;7.370;2024-02-21T19:28:35;10.60;90.00
22379;DHT22;11357;49.990;7.370;2024-02-21T19:31:01;10.50;90.00
22379;DHT22;11357;49.990;7.370;2024-02-21T19:33:30;10.50;90.10
22379;DHT22;11357;49.990;7.370;2024-02-21T19:35:56;10.50;90.20
22379;DHT22;11357;49.990;7.370;2024-02-21T19:38:23;10.50;90.40
22379;DHT22;11357;49.990;7.370;2024-02-21T19:40:51;10.40;90.40
22379;DHT22;11357;49.990;7.370;2024-02-21T19:43:16;10.40;90.50
22379;DHT22;11357;49.990;7.370;2024-02-21T19:45:43;10.40;90.80
22379;DHT22;11357;49.990;7.370;2024-02-21T19:48:12;10.30;90.90
22379;DHT22;11357;49.990;7.370;2024-02-21T19:50:41;10.30;91.00
22379;DHT22;11357;49.990;7.370;2024-02-21T19:53:07;10.30;91.10
22379;DHT22;11357;49.990;7.370;2024-02-21T19:55:33;10.30;91.20
22379;DHT22;11357;49.990;7.370;2024-02-21T19:57:58;10.30;91.30
22379;DHT22;11357;49.990;7.370;2024-02-21T20:00:24;10.30;91.40
22379;DHT22;11357;49.990;7.370;2024-02-21T20:02:50;10.30;91.50
22379;DHT22;11357;49.990;7.370;2024-02-21T20:05:18;10.20;91.50
22379;DHT22;11357;49.990;7.370;2024-02-21T20:07:44;10.20;91.60
22379;DHT22;11357;49.990;7.370;2024-02-21T20:10:10;10.20;91.70
22379;DHT22;11357;49.990;7.370;2024-02-21T20:12:37;10.20;91.80
22379;DHT22;11357;49.990;7.370;2024-02-21T20:15:04;10.10;91.90
22379;DHT22;11357;49.990;7.370;2024-02-21T20:17:33;10.10;92.00
22379;DHT22;11357;49.990;7.370;2024-02-21T20:19:59;10.10;92.10
22379;DHT22;11357;49.990;7.370;2024-02-21T20:22:25;10.10;92.20
22379;DHT22;11357;49.990;7.370;2024-02-21T20:24:51;10.10;92.20
22379;DHT22;11357;49.990;7.370;2024-02-21T20:27:17;10.10;92.30
22379;DHT22;11357;49.990;7.370;2024-02-21T20:29:42;10.10;92.50
22379;DHT22;11357;49.990;7.370;2024-02-21T20:32:08;10.10;92.60
22379;DHT22;11357;49.990;7.370;2024-02-21T20:34:34;10.00;92.70
22379;DHT22;11357;49.990;7.370;2024-02-21T20:37:00;10.00;92.80
22379;DHT22;11357;49.990;7.370;2024-02-21T20:39:26;10.00;92.90
22379;DHT22;11357;49.990;7.370;2024-02-21T20:41:54;10.00;93.00
22379;DHT22;11357;49.990;7.370;2024-02-21T20:44:22;10.00;93.00
22379;DHT22;11357;49.990;7.370;2024-02-21T20:46:50;10.00;93.10
22379;DHT22;11357;49.990;7.370;2024-02-21T20:49:16;10.00;93.10
22379;DHT22;11357;49.990;7.370;2024-02-21T20:51:42;10.00;93.10
22379;DHT22;11357;49.990;7.370;2024-02-21T20:54:08;10.00;93.30
22379;DHT22;11357;49.990;7.370;2024-02-21T20:56:35;10.00;93.30
22379;DHT22;11357;49.990;7.370;2024-02-21T20:59:01;10.00;93.30
22379;DHT22;11357;49.990;7.370;2024-02-21T21:01:27;10.00;93.50
22379;DHT22;11357;49.990;7.370;2024-02-21T21:03:52;10.00;93.50
22379;DHT22;11357;49.990;7.370;2024-02-21T21:06:18;10.00;93.50
22379;DHT22;11357;49.990;7.370;2024-02-21T21:08:44;10.00;93.60
22379;DHT22;11357;49.990;7.370;2024-02-21T21:11:10;10.00;93.70
22379;DHT22;11357;49.990;7.370;2024-02-21T21:13:38;10.00;93.70
22379;DHT22;11357;49.990;7.370;2024-02-21T21:16:04;10.00;93.80
22379;DHT22;11357;49.990;7.370;2024-02-21T21:18:30;10.00;93.90
22379;DHT22;11357;49.990;7.370;2024-02-21T21:20:57;10.00;94.00
22379;DHT22;11357;49.990;7.370;2024-02-21T21:23:23;10.00;94.00
22379;DHT22;11357;49.990;7.370;2024-02-21T21:25:50;10.00;94.20
22379;DHT22;11357;49.990;7.370;2024-02-21T21:28:16;10.00;94.30
22379;DHT22;11357;49.990;7.370;2024-02-21T21:30:42;10.00;94.30
22379;DHT22;11357;49.990;7.370;2024-02-21T21:33:09;10.10;94.50
22379;DHT22;11357;49.990;7.370;2024-02-21T21:35:35;10.10;94.60
22379;DHT22;11357;49.990;7.370;2024-02-21T21:38:01;10.20;94.60
22379;DHT22;11357;49.990;7.370;2024-02-21T21:40:32;10.20;94.70
22379;DHT22;11357;49.990;7.370;2024-02-21T21:42:58;10.20;94.70
22379;DHT22;11357;49.990;7.370;2024-02-21T21:45:27;10.20;94.70
22379;DHT22;11357;49.990;7.370;2024-02-21T21:47:53;10.30;94.80
22379;DHT22;11357;49.990;7.370;2024-02-21T21:50:18;10.30;94.80
22379;DHT22;11357;49.990;7.370;2024-02-21T21:52:45;10.30;94.80
22379;DHT22;11357;49.990;7.370;2024-02-21T21:55:11;10.30;94.80
22379;DHT22;11357;49.990;7.370;2024-02-21T21:57:38;10.30;94.70
22379;DHT22;11357;49.990;7.370;2024-02-21T22:00:04;10.40;94.90
22379;DHT22;11357;49.990;7.370;2024-02-21T22:02:31;10.40;94.80
22379;DHT22;11357;49.990;7.370;2024-02-21T22:04:57;10.40;94.90
22379;DHT22;11357;49.990;7.370;2024-02-21T22:07:22;10.40;94.80
22379;DHT22;11357;49.990;7.370;2024-02-21T22:09:48;10.40;94.90
22379;DHT22;11357;49.990;7.370;2024-02-21T22:12:14;10.40;94.90
22379;DHT22;11357;49.990;7.370;2024-02-21T22:14:39;10.40;94.90
22379;DHT22;11357;49.990;7.370;2024-02-21T22:17:05;10.40;94.90
22379;DHT22;11357;49.990;7.370;2024-02-21T22:19:31;10.40;94.90
22379;DHT22;11357;49.990;7.370;2024-02-21T22:21:56;10.40;94.80
22379;DHT22;11357;49.990;7.370;2024-02-21T22:24:22;10.40;94.90
22379;DHT22;11357;49.990;7.370;2024-02-21T22:26:48;10.40;94.90
22379;DHT22;11357;49.990;7.370;2024-02-21T22:29:16;10.50;94.90
22379;DHT22;11357;49.990;7.370;2024-02-21T22:31:42;10.50;94.90
22379;DHT22;11357;49.990;7.370;2024-02-21T22:34:07;10.50;95.00
22379;DHT22;11357;49.990;7.370;2024-02-21T22:36:33;10.50;95.00
22379;DHT22;11357;49.990;7.370;2024-02-21T22:38:59;10.50;95.00
22379;DHT22;11357;49.990;7.370;2024-02-21T22:41:25;10.40;95.00
22379;DHT22;11357;49.990;7.370;2024-02-21T22:43:51;10.50;95.10
22379;DHT22;11357;49.990;7.370;2024-02-21T22:46:16;10.40;95.10
22379;DHT22;11357;49.990;7.370;2024-02-21T22:48:45;10.40;95.10
22379;DHT22;11357;49.990;7.370;2024-02-21T22:51:12;10.40;95.10
22379;DHT22;11357;49.990;7.370;2024-02-21T22:53:37;10.50;95.20
22379;DHT22;11357;49.990;7.370;2024-02-21T22:56:03;10.50;95.20
22379;DHT22;11357;49.990;7.370;2024-02-21T22:58:29;10.40;95.20
22379;DHT22;11357;49.990;7.370;2024-02-21T23:00:55;10.50;95.20
22379;DHT22;11357;49.990;7.370;2024-02-21T23:03:20;10.50;95.20
22379;DHT22;11357;49.990;7.370;2024-02-21T23:05:47;10.50;95.30
22379;DHT22;11357;49.990;7.370;2024-02-21T23:08:13;10.50;95.30
22379;DHT22;11357;49.990;7.370;2024-02-21T23:10:39;10.50;95.30
22379;DHT22;11357;49.990;7.370;2024-02-21T23:13:05;10.50;95.40
22379;DHT22;11357;49.990;7.370;2024-02-21T23:15:30;10.50;95.40
22379;DHT22;11357;49.990;7.370;2024-02-21T23:17:56;10.50;95.40
22379;DHT22;11357;49.990;7.370;2024-02-21T23:20:22;10.50;95.50
22379;DHT22;11357;49.990;7.370;2024-02-21T23:22:48;10.50;95.50
22379;DHT22;11357;49.990;7.370;2024-02-21T23:25:13;10.50;95.50
22379;DHT22;11357;49.990;7.370;2024-02-21T23:27:40;10.50;95.50
22379;DHT22;11357;49.990;7.370;2024-02-21T23:30:07;10.50;95.50
22379;DHT22;11357;49.990;7.370;2024-02-21T23:32:37;10.50;95.50
22379;DHT22;11357;49.990;7.370;2024-02-21T23:35:03;10.60;95.60
22379;DHT22;11357;49.990;7.370;2024-02-21T23:37:30;10.60;95.60
22379;DHT22;11357;49.990;7.370;2024-02-21T23:39:56;10.60;95.60
22379;DHT22;11357;49.990;7.370;2024-02-21T23:42:22;10.60;95.70
22379;DHT22;11357;49.990;7.370;2024-02-21T23:44:47;10.60;95.70
22379;DHT22;11357;49.990;7.370;2024-02-21T23:47:14;10.60;95.80
22379;DHT22;11357;49.990;7.370;2024-02-21T23:49:41;10.60;95.80
22379;DHT22;11357;49.990;7.370;2024-02-21T23:52:06;10.60;95.80
22379;DHT22;11357;49.990;7.370;2024-02-21T23:54:32;10.70;95.80
22379;DHT22;11357;49.990;7.370;2024-02-21T23:56:57;10.60;95.80
22379;DHT22;11357;49.990;7.370;2024-02-21T23:59:23;10.70;95.80
